Time;durP1;ratioP1;P1;durP2;ratioP2;P2;SDS_P1;SDS_P2;PMS_P1;PMS_P2;Temp;Humidity;BMP_temperature;BMP_pressure;BME280_temperature;BME280_humidity;BME280_pressure;Samples;Min_cycle;Max_cycle;Signal;HPM_P1;HPM_P2
2023/10/05 00:03:43;;;;;;;10.25;2.50;;;15.00;99.90;;;;;;5132418;27;20051;-79
2023/10/05 00:06:16;;;;;;;12.43;2.40;;;15.10;99.90;;;;;;5132336;27;20042;-79
2023/10/05 00:08:44;;;;;;;9.77;2.50;;;15.10;99.90;;;;;;5132175;27;20505;-78
2023/10/05 00:11:23;;;;;;;10.55;2.72;;;15.00;99.90;;;;;;5132069;27;20043;-78
2023/10/05 00:14:06;;;;;;;10.07;2.65;;;15.10;99.90;;;;;;5132092;27;20401;-78
2023/10/05 00:16:37;;;;;;;8.30;2.50;;;15.10;99.90;;;;;;5131925;27;20088;-78
2023/10/05 00:19:11;;;;;;;12.55;2.63;;;15.10;99.90;;;;;;5132016;27;20047;-78
2023/10/05 00:21:51;;;;;;;13.95;2.80;;;15.10;99.90;;;;;;5131985;27;20082;-78
2023/10/05 00:24:29;;;;;;;7.68;2.15;;;15.00;99.90;;;;;;5132394;27;20055;-78
2023/10/05 00:26:56;;;;;;;12.65;2.50;;;15.00;99.90;;;;;;5131954;27;20070;-78
2023/10/05 00:29:29;;;;;;;12.85;2.30;;;15.00;99.90;;;;;;5132059;27;20043;-78
2023/10/05 00:32:00;;;;;;;10.38;2.22;;;15.00;99.90;;;;;;5131965;27;20043;-78
2023/10/05 00:34:28;;;;;;;10.98;2.45;;;15.00;99.90;;;;;;5132221;27;20548;-78
2023/10/05 00:36:57;;;;;;;10.25;2.25;;;15.00;99.90;;;;;;5131147;27;20032;-78
2023/10/05 00:39:24;;;;;;;8.80;2.42;;;14.90;99.90;;;;;;5133384;27;20046;-78
2023/10/05 00:42:07;;;;;;;9.13;2.25;;;14.90;99.90;;;;;;5132276;28;20047;-78
2023/10/05 00:44:34;;;;;;;8.02;2.30;;;14.90;99.90;;;;;;5132009;28;20043;-78
2023/10/05 00:47:06;;;;;;;11.90;2.22;;;15.00;99.90;;;;;;5131477;28;20050;-78
2023/10/05 00:49:52;;;;;;;11.20;2.38;;;15.00;99.90;;;;;;5131459;28;20096;-78
2023/10/05 00:52:24;;;;;;;13.63;2.15;;;15.00;99.90;;;;;;5131479;28;20050;-78
2023/10/05 00:54:55;;;;;;;11.98;2.40;;;14.90;99.90;;;;;;5132064;28;20112;-78
2023/10/05 00:57:24;;;;;;;8.18;2.30;;;15.00;99.90;;;;;;5131694;28;20081;-78
2023/10/05 01:02:25;;;;;;;12.35;2.40;;;14.80;99.90;;;;;;5131953;28;20090;-78
2023/10/05 01:04:57;;;;;;;10.93;2.17;;;14.90;99.90;;;;;;5131125;28;20093;-78
2023/10/05 01:10:15;;;;;;;12.15;2.53;;;14.80;99.90;;;;;;5131738;28;20112;-78
2023/10/05 01:12:44;;;;;;;9.55;2.30;;;14.80;99.90;;;;;;5132077;28;20043;-78
2023/10/05 01:15:15;;;;;;;13.43;2.67;;;14.80;99.90;;;;;;5131424;28;20043;-78
2023/10/05 01:17:42;;;;;;;8.05;2.28;;;14.80;99.90;;;;;;5131884;28;20036;-78
2023/10/05 01:20:11;;;;;;;9.27;2.38;;;14.90;99.90;;;;;;5133104;28;20088;-79
2023/10/05 01:22:44;;;;;;;14.68;2.60;;;14.90;99.90;;;;;;5131583;28;20050;-78
2023/10/05 01:25:14;;;;;;;13.02;3.20;;;14.90;99.90;;;;;;5131156;28;20062;-78
2023/10/05 01:27:44;;;;;;;14.68;2.80;;;14.90;99.90;;;;;;5133073;27;20035;-79
2023/10/05 01:30:14;;;;;;;13.45;2.50;;;14.90;99.90;;;;;;5136449;27;20402;-78
2023/10/05 01:32:42;;;;;;;11.68;2.50;;;14.90;99.90;;;;;;5135377;27;20489;-78
2023/10/05 01:35:09;;;;;;;11.60;2.47;;;14.90;99.90;;;;;;5134883;27;20039;-78
2023/10/05 01:37:36;;;;;;;11.30;2.70;;;14.80;99.90;;;;;;5137000;27;20088;-78
2023/10/05 01:42:47;;;;;;;14.85;2.88;;;14.80;99.90;;;;;;5136230;27;20371;-78
2023/10/05 01:45:16;;;;;;;18.48;3.83;;;14.70;99.90;;;;;;5134999;27;20078;-78
2023/10/05 01:47:46;;;;;;;15.55;3.05;;;14.70;99.90;;;;;;5136916;27;20035;-78
2023/10/05 01:50:19;;;;;;;12.52;2.75;;;14.70;99.90;;;;;;5135211;27;20079;-78
2023/10/05 01:52:56;;;;;;;12.23;2.65;;;14.70;99.90;;;;;;5135087;27;20046;-78
2023/10/05 01:55:24;;;;;;;12.90;2.92;;;14.70;99.90;;;;;;5134949;27;20426;-78
2023/10/05 01:57:51;;;;;;;13.85;3.67;;;14.70;99.90;;;;;;5134866;27;20475;-78
2023/10/05 02:00:19;;;;;;;14.10;2.85;;;14.70;99.90;;;;;;5144450;27;20055;-78
2023/10/05 02:02:46;;;;;;;12.15;2.88;;;14.70;99.90;;;;;;5138572;27;20074;-78
2023/10/05 02:05:14;;;;;;;12.02;2.83;;;14.20;99.90;;;;;;5138206;27;20053;-78
2023/10/05 02:07:40;;;;;;;11.15;2.90;;;14.70;99.90;;;;;;5156384;27;20461;-78
2023/10/05 02:10:10;;;;;;;14.63;2.70;;;14.70;99.90;;;;;;5138197;27;20077;-78
2023/10/05 02:12:36;;;;;;;12.10;2.70;;;14.70;99.90;;;;;;5157281;27;20439;-78
2023/10/05 02:15:13;;;;;;;12.98;3.10;;;14.70;99.90;;;;;;5137761;27;20393;-78
2023/10/05 02:17:43;;;;;;;13.25;3.00;;;14.80;99.90;;;;;;5138173;27;20540;-78
2023/10/05 02:20:19;;;;;;;12.48;2.83;;;14.80;99.90;;;;;;5137834;27;20130;-78
2023/10/05 02:22:47;;;;;;;12.65;2.97;;;14.80;99.90;;;;;;5137678;27;20454;-78
2023/10/05 02:25:18;;;;;;;14.05;2.75;;;14.80;99.90;;;;;;5137786;27;20042;-77
2023/10/05 02:27:46;;;;;;;12.73;2.83;;;14.80;99.90;;;;;;5137329;27;20117;-78
2023/10/05 02:30:14;;;;;;;12.00;2.88;;;14.90;99.90;;;;;;5137977;27;20046;-78
2023/10/05 02:32:40;;;;;;;14.63;3.22;;;14.80;99.90;;;;;;5156060;27;20038;-78
2023/10/05 02:35:18;;;;;;;14.18;2.60;;;14.90;99.90;;;;;;5137367;27;20038;-78
2023/10/05 02:37:50;;;;;;;13.15;3.05;;;14.80;99.90;;;;;;5137803;27;20047;-78
2023/10/05 02:40:16;;;;;;;15.00;2.72;;;14.70;99.90;;;;;;5136933;27;20042;-78
2023/10/05 02:42:41;;;;;;;13.85;2.58;;;14.70;99.90;;;;;;5137201;27;20050;-78
2023/10/05 02:45:09;;;;;;;13.45;3.03;;;14.70;99.90;;;;;;5137442;27;20038;-78
2023/10/05 02:47:34;;;;;;;12.48;3.28;;;14.70;99.90;;;;;;5156476;27;20042;-78
2023/10/05 02:50:00;;;;;;;13.57;3.55;;;14.70;99.90;;;;;;5137251;27;20486;-78
2023/10/05 02:52:26;;;;;;;11.32;2.67;;;14.70;99.90;;;;;;5136957;27;20042;-78
2023/10/05 02:54:52;;;;;;;12.27;3.10;;;14.70;99.90;;;;;;5137479;27;20050;-79
2023/10/05 02:57:19;;;;;;;13.70;2.97;;;14.70;99.90;;;;;;5136846;27;20405;-78
2023/10/05 02:59:46;;;;;;;15.02;3.17;;;14.70;99.90;;;;;;5137021;27;20509;-78
2023/10/05 03:02:16;;;;;;;12.27;2.78;;;14.60;99.90;;;;;;5136649;27;20133;-78
2023/10/05 03:04:46;;;;;;;12.45;2.80;;;14.60;99.90;;;;;;5136647;27;20129;-78
2023/10/05 03:07:17;;;;;;;13.68;2.95;;;14.60;99.90;;;;;;5137162;27;20222;-78
2023/10/05 03:09:46;;;;;;;14.55;2.70;;;14.60;99.90;;;;;;5136685;27;20047;-79
2023/10/05 03:12:12;;;;;;;11.50;2.80;;;14.60;99.90;;;;;;5136481;27;20066;-78
2023/10/05 03:14:40;;;;;;;13.13;3.50;;;14.60;99.90;;;;;;5136743;27;20046;-78
2023/10/05 03:17:13;;;;;;;11.98;2.85;;;14.60;99.90;;;;;;5136212;27;20053;-78
2023/10/05 03:19:39;;;;;;;12.77;3.33;;;14.60;99.90;;;;;;5137102;27;20385;-79
2023/10/05 03:22:07;;;;;;;14.25;3.00;;;14.60;99.90;;;;;;5136984;27;20042;-78
2023/10/05 03:24:34;;;;;;;15.48;3.47;;;14.60;99.90;;;;;;5136311;27;20074;-78
2023/10/05 03:27:03;;;;;;;18.77;4.13;;;14.60;99.90;;;;;;5136613;27;20435;-78
2023/10/05 03:29:35;;;;;;;15.27;3.13;;;14.60;99.90;;;;;;5136833;27;20066;-78
2023/10/05 03:32:13;;;;;;;11.93;3.00;;;14.60;99.90;;;;;;5135688;27;20405;-78
2023/10/05 03:34:42;;;;;;;20.58;4.05;;;14.70;99.90;;;;;;5136750;27;20093;-77
2023/10/05 03:37:12;;;;;;;9.80;3.20;;;14.70;99.90;;;;;;5136692;27;20042;-78
2023/10/05 03:39:53;;;;;;;8.98;2.95;;;14.80;99.90;;;;;;5136167;27;20057;-79
2023/10/05 03:42:22;;;;;;;11.43;3.00;;;14.80;99.90;;;;;;5136354;27;20048;-79
2023/10/05 03:45:09;;;;;;;11.68;2.88;;;14.80;99.90;;;;;;5136214;27;20046;-78
2023/10/05 03:47:38;;;;;;;14.38;2.80;;;14.80;99.90;;;;;;5136245;27;20081;-78
2023/10/05 03:50:05;;;;;;;12.98;3.13;;;14.90;99.90;;;;;;5136094;27;20050;-79
2023/10/05 03:52:32;;;;;;;15.25;2.90;;;14.90;99.90;;;;;;5135513;27;20043;-78
2023/10/05 03:55:10;;;;;;;18.92;3.55;;;14.90;99.90;;;;;;5135637;27;20081;-79
2023/10/05 03:57:42;;;;;;;13.93;3.15;;;14.90;99.90;;;;;;5136044;27;20510;-78
2023/10/05 04:02:44;;;;;;;13.05;4.45;;;15.00;99.90;;;;;;5135580;27;20414;-79
2023/10/05 04:05:11;;;;;;;13.77;3.35;;;15.00;99.90;;;;;;5135930;27;20405;-79
2023/10/05 04:07:37;;;;;;;12.85;3.30;;;14.90;99.90;;;;;;5135373;27;20398;-79
2023/10/05 04:10:05;;;;;;;18.73;3.33;;;15.00;99.90;;;;;;5135160;27;20057;-79
2023/10/05 04:12:32;;;;;;;12.70;3.10;;;15.00;99.90;;;;;;5134433;27;20095;-79
2023/10/05 04:15:00;;;;;;;10.93;2.78;;;15.00;99.90;;;;;;5133529;27;20125;-79
2023/10/05 04:17:26;;;;;;;15.95;3.50;;;14.90;99.90;;;;;;5135674;27;20114;-78
2023/10/05 04:19:52;;;;;;;14.40;3.10;;;14.90;99.90;;;;;;5135539;27;20050;-78
2023/10/05 04:22:18;;;;;;;14.80;3.50;;;14.90;99.90;;;;;;5135767;27;20052;-78
2023/10/05 04:24:45;;;;;;;16.15;3.42;;;14.90;99.90;;;;;;5135583;27;20043;-79
2023/10/05 04:27:12;;;;;;;14.48;3.08;;;14.90;99.90;;;;;;5135193;27;20038;-79
2023/10/05 04:29:37;;;;;;;12.38;3.30;;;14.90;99.90;;;;;;5135824;27;20045;-78
2023/10/05 04:32:06;;;;;;;12.45;3.38;;;14.80;99.90;;;;;;5135083;27;20046;-78
2023/10/05 04:34:32;;;;;;;18.88;3.17;;;14.90;99.90;;;;;;5135602;27;20047;-78
2023/10/05 04:36:58;;;;;;;16.30;3.28;;;14.80;99.90;;;;;;5135289;27;20069;-78
2023/10/05 04:39:32;;;;;;;15.35;3.78;;;14.80;99.90;;;;;;5135710;27;20043;-78
2023/10/05 04:42:05;;;;;;;15.88;3.20;;;14.80;99.90;;;;;;5134875;27;20085;-78
2023/10/05 04:44:31;;;;;;;17.83;3.72;;;14.80;99.90;;;;;;5135483;27;20051;-78
2023/10/05 04:46:57;;;;;;;15.43;3.58;;;14.80;99.90;;;;;;5124112;27;20513;-77
2023/10/05 04:49:24;;;;;;;13.32;3.28;;;14.70;99.90;;;;;;5134264;27;20046;-76
2023/10/05 04:51:51;;;;;;;15.25;3.25;;;14.60;99.90;;;;;;5134190;27;20038;-77
2023/10/05 04:54:25;;;;;;;16.60;2.78;;;14.60;99.90;;;;;;5135101;27;20043;-76
2023/10/05 04:56:54;;;;;;;14.50;3.58;;;14.60;99.90;;;;;;5134467;27;20046;-76
2023/10/05 05:03:05;;;;;;;14.77;2.95;;;14.60;99.90;;;;;;5131195;27;20054;-76
2023/10/05 05:05:09;;;;;;;13.30;3.20;;;14.50;99.90;;;;;;5118609;27;20039;-78
2023/10/05 05:07:36;;;;;;;16.02;3.33;;;14.60;99.90;;;;;;5135749;27;20114;-75
2023/10/05 05:10:03;;;;;;;13.55;3.42;;;14.50;99.90;;;;;;5137086;27;20090;-73
2023/10/05 05:12:29;;;;;;;16.77;3.33;;;14.50;99.90;;;;;;5139326;27;20061;-75
2023/10/05 05:14:55;;;;;;;14.10;3.28;;;14.60;99.90;;;;;;5138616;27;20047;-72
2023/10/05 05:17:24;;;;;;;17.38;3.20;;;14.60;99.90;;;;;;5157443;27;20045;-70
2023/10/05 05:19:52;;;;;;;17.23;3.17;;;14.60;99.90;;;;;;5138753;27;20038;-77
2023/10/05 05:22:18;;;;;;;13.35;3.25;;;14.60;99.90;;;;;;5139396;27;20043;-77
2023/10/05 05:24:44;;;;;;;15.50;3.40;;;14.60;99.90;;;;;;5138546;27;20043;-75
2023/10/05 05:29:48;;;;;;;13.38;3.33;;;14.70;99.90;;;;;;5139258;27;20058;-74
2023/10/05 05:32:14;;;;;;;15.93;3.13;;;14.70;99.90;;;;;;5138444;27;20050;-71
2023/10/05 05:34:41;;;;;;;13.32;3.20;;;14.70;99.90;;;;;;5138798;27;20110;-71
2023/10/05 05:37:08;;;;;;;15.38;3.20;;;14.70;99.90;;;;;;5157208;27;20404;-74
2023/10/05 05:39:40;;;;;;;10.15;2.95;;;14.80;99.90;;;;;;5137998;27;20102;-75
2023/10/05 05:42:14;;;;;;;11.80;3.10;;;14.80;99.90;;;;;;5138509;27;20562;-80
2023/10/05 05:44:40;;;;;;;16.40;3.47;;;14.90;99.90;;;;;;5136560;27;20077;-73
2023/10/05 05:47:10;;;;;;;14.10;2.97;;;14.80;99.90;;;;;;5125172;27;20290;-76
2023/10/05 05:49:45;;;;;;;10.45;3.30;;;14.70;99.90;;;;;;5116882;27;20051;-76
2023/10/05 05:52:12;;;;;;;11.95;3.20;;;14.70;99.90;;;;;;5117202;27;20070;-76
2023/10/05 05:54:38;;;;;;;15.75;3.75;;;14.70;99.90;;;;;;5117935;27;20084;-75
2023/10/05 05:57:06;;;;;;;10.20;3.10;;;14.70;99.90;;;;;;5116691;27;20130;-75
2023/10/05 05:59:34;;;;;;;15.30;2.83;;;14.70;99.90;;;;;;5115468;27;20407;-74
2023/10/05 06:02:10;;;;;;;11.15;3.25;;;14.70;99.90;;;;;;5115842;27;20047;-73
2023/10/05 06:04:38;;;;;;;8.98;2.65;;;14.70;99.90;;;;;;5124023;27;20060;-74
2023/10/05 06:07:14;;;;;;;13.63;3.40;;;14.70;99.90;;;;;;5126497;27;20035;-76
2023/10/05 06:09:46;;;;;;;17.27;3.67;;;14.70;99.90;;;;;;5127120;27;20068;-76
2023/10/05 06:12:16;;;;;;;16.63;3.85;;;14.70;99.90;;;;;;5125418;27;20096;-80
2023/10/05 06:14:42;;;;;;;14.45;3.53;;;14.70;99.90;;;;;;5115058;27;20390;-79
2023/10/05 06:17:09;;;;;;;10.00;3.35;;;14.70;99.90;;;;;;5133270;27;20070;-77
2023/10/05 06:19:37;;;;;;;10.18;2.80;;;14.70;99.90;;;;;;5137244;27;20053;-74
2023/10/05 06:22:06;;;;;;;9.48;2.70;;;14.70;99.90;;;;;;5137336;27;20553;-78
2023/10/05 06:24:32;;;;;;;10.40;2.80;;;14.60;99.90;;;;;;5156682;27;20046;-77
2023/10/05 06:27:00;;;;;;;12.02;2.88;;;14.60;99.90;;;;;;5137394;27;20039;-74
2023/10/05 06:29:26;;;;;;;8.30;2.55;;;14.60;99.90;;;;;;5137710;27;20047;-74
2023/10/05 06:31:52;;;;;;;15.25;2.90;;;14.60;99.90;;;;;;5137853;27;20133;-75
2023/10/05 06:34:18;;;;;;;10.75;2.72;;;14.60;99.90;;;;;;5136795;27;20623;-73
2023/10/05 06:36:43;;;;;;;11.27;3.15;;;14.60;99.90;;;;;;5137018;27;20035;-75
2023/10/05 06:39:14;;;;;;;10.85;2.85;;;14.70;99.90;;;;;;5136903;27;20090;-74
2023/10/05 06:41:40;;;;;;;12.57;3.00;;;14.70;99.90;;;;;;5137451;27;20386;-75
2023/10/05 06:44:07;;;;;;;9.32;2.80;;;14.60;99.90;;;;;;5136823;27;20121;-74
2023/10/05 06:46:34;;;;;;;15.18;2.97;;;14.60;99.90;;;;;;5137034;27;20078;-75
2023/10/05 06:49:01;;;;;;;13.50;2.60;;;14.60;99.90;;;;;;5136807;27;20051;-75
2023/10/05 06:51:28;;;;;;;7.00;2.22;;;14.60;99.90;;;;;;5136756;27;20047;-73
2023/10/05 06:53:54;;;;;;;8.48;2.55;;;14.60;99.90;;;;;;5136815;27;20051;-74
2023/10/05 06:56:21;;;;;;;8.20;2.42;;;14.60;99.90;;;;;;5136279;27;20039;-73
2023/10/05 06:58:47;;;;;;;6.30;2.13;;;14.50;99.90;;;;;;5135538;27;20059;-73
2023/10/05 07:01:13;;;;;;;11.57;2.80;;;14.60;99.90;;;;;;5136484;27;20134;-75
2023/10/05 07:03:39;;;;;;;13.20;2.92;;;14.60;99.90;;;;;;5136607;27;20091;-72
2023/10/05 07:06:05;;;;;;;9.93;3.00;;;14.70;99.90;;;;;;5136733;27;20042;-73
2023/10/05 07:08:34;;;;;;;11.40;3.20;;;14.50;99.90;;;;;;5137326;27;20050;-73
2023/10/05 07:10:59;;;;;;;12.18;3.13;;;14.60;99.90;;;;;;5135983;27;20030;-73
2023/10/05 07:13:28;;;;;;;13.70;4.32;;;14.60;99.90;;;;;;5135605;27;20043;-74
2023/10/05 07:15:57;;;;;;;14.57;3.65;;;14.60;99.90;;;;;;5134325;27;20042;-74
2023/10/05 07:18:24;;;;;;;15.00;3.67;;;14.70;99.90;;;;;;5134563;27;20492;-74
2023/10/05 07:20:50;;;;;;;16.10;3.88;;;14.80;99.90;;;;;;5134066;27;20039;-74
2023/10/05 07:23:16;;;;;;;15.05;3.95;;;14.80;99.90;;;;;;5133523;27;20046;-75
2023/10/05 07:25:41;;;;;;;18.25;3.80;;;14.90;99.90;;;;;;5133624;27;20062;-75
2023/10/05 07:28:16;;;;;;;20.27;3.92;;;14.90;99.90;;;;;;5134984;27;20204;-75
2023/10/05 07:30:45;;;;;;;14.75;3.70;;;15.00;99.90;;;;;;5135779;27;20042;-75
2023/10/05 07:33:11;;;;;;;13.40;3.33;;;15.10;99.90;;;;;;5136092;27;20115;-74
2023/10/05 07:35:40;;;;;;;13.43;4.20;;;15.20;99.90;;;;;;5136378;27;20545;-75
2023/10/05 07:38:06;;;;;;;16.08;3.30;;;15.20;99.90;;;;;;5154038;27;20896;-75
2023/10/05 07:40:35;;;;;;;9.13;2.75;;;15.20;99.90;;;;;;5136651;27;20042;-76
2023/10/05 07:43:03;;;;;;;17.25;2.97;;;15.20;99.90;;;;;;5136173;27;20054;-74
2023/10/05 07:45:28;;;;;;;9.60;2.53;;;15.20;99.90;;;;;;5135708;27;20504;-74
2023/10/05 07:47:59;;;;;;;8.02;2.80;;;15.10;99.90;;;;;;5136301;27;20035;-73
2023/10/05 07:50:28;;;;;;;9.82;2.55;;;15.10;99.90;;;;;;5136816;27;20050;-74
2023/10/05 07:52:57;;;;;;;8.00;2.60;;;15.20;99.90;;;;;;5143085;27;20046;-74
2023/10/05 07:55:23;;;;;;;13.55;3.10;;;15.20;99.90;;;;;;5135756;27;20043;-74
2023/10/05 07:57:51;;;;;;;12.10;2.95;;;15.20;99.90;;;;;;5136065;27;20042;-74
2023/10/05 08:00:21;;;;;;;12.02;3.40;;;15.30;99.90;;;;;;5135395;27;20111;-74
2023/10/05 08:02:49;;;;;;;10.27;2.95;;;15.50;99.90;;;;;;5135760;27;20097;-75
2023/10/05 08:05:16;;;;;;;11.52;3.40;;;15.70;99.90;;;;;;5135767;27;20070;-75
2023/10/05 08:07:44;;;;;;;8.38;3.05;;;16.00;99.90;;;;;;5135390;27;20466;-75
2023/10/05 08:10:19;;;;;;;12.25;3.75;;;16.10;99.90;;;;;;5135434;27;20539;-74
2023/10/05 08:12:50;;;;;;;10.25;3.08;;;16.10;99.90;;;;;;5114827;27;20085;-74
2023/10/05 08:15:19;;;;;;;14.18;2.70;;;16.00;99.90;;;;;;5115248;27;20047;-74
2023/10/05 08:17:46;;;;;;;10.20;3.20;;;15.90;99.90;;;;;;5124683;27;20037;-74
2023/10/05 08:20:11;;;;;;;14.52;3.30;;;15.90;99.90;;;;;;5135376;27;20051;-74
2023/10/05 08:22:37;;;;;;;11.45;3.22;;;15.90;99.90;;;;;;5135491;27;20068;-74
2023/10/05 08:25:12;;;;;;;12.90;2.97;;;15.90;99.90;;;;;;5153765;27;20038;-74
2023/10/05 08:27:39;;;;;;;14.40;3.30;;;15.80;99.90;;;;;;5134696;27;20042;-74
2023/10/05 08:30:10;;;;;;;10.48;3.65;;;15.80;99.90;;;;;;5133756;27;20046;-74
2023/10/05 08:32:37;;;;;;;11.63;3.47;;;15.80;99.90;;;;;;5134996;27;20046;-74
2023/10/05 08:35:07;;;;;;;12.20;3.47;;;15.90;99.90;;;;;;5151399;27;20046;-75
2023/10/05 08:37:42;;;;;;;10.70;3.25;;;15.80;99.90;;;;;;5134867;27;20035;-75
2023/10/05 08:40:28;;;;;;;9.98;2.90;;;15.90;99.90;;;;;;5135068;27;20066;-75
2023/10/05 08:43:08;;;;;;;11.48;3.00;;;15.90;99.90;;;;;;5153790;27;20034;-75
2023/10/05 08:45:45;;;;;;;13.75;2.80;;;16.00;99.90;;;;;;5134942;27;20038;-77
2023/10/05 08:48:19;;;;;;;11.68;3.30;;;16.00;99.90;;;;;;5134821;27;20043;-77
2023/10/05 08:50:48;;;;;;;12.38;3.30;;;16.10;99.90;;;;;;5135395;27;20062;-76
2023/10/05 08:53:19;;;;;;;11.45;2.72;;;16.30;99.90;;;;;;5153364;27;20043;-77
2023/10/05 08:55:46;;;;;;;11.82;3.30;;;16.50;99.90;;;;;;5134726;27;20047;-77
2023/10/05 08:58:18;;;;;;;12.43;3.17;;;16.70;99.90;;;;;;5134731;27;20406;-78
2023/10/05 09:00:48;;;;;;;11.15;3.00;;;16.90;99.90;;;;;;5134883;27;20050;-78
2023/10/05 09:06:13;;;;;;;16.73;4.22;;;17.10;99.90;;;;;;5153282;27;20486;-80
2023/10/05 09:08:53;;;;;;;11.40;3.60;;;17.10;99.90;;;;;;5134443;27;20485;-79
2023/10/05 09:11:33;;;;;;;8.88;2.75;;;17.10;99.90;;;;;;5135351;27;20045;-77
2023/10/05 09:14:12;;;;;;;11.35;3.50;;;17.00;99.90;;;;;;5135054;27;20049;-78
2023/10/05 09:16:47;;;;;;;12.93;3.42;;;16.90;99.90;;;;;;5134963;27;20501;-78
2023/10/05 09:19:26;;;;;;;10.93;3.30;;;16.70;99.90;;;;;;5135067;27;20534;-78
2023/10/05 09:24:25;;;;;;;8.63;3.00;;;16.70;99.90;;;;;;5142927;27;20556;-77
2023/10/05 09:26:53;;;;;;;12.20;3.53;;;16.70;99.90;;;;;;5134636;27;20118;-77
2023/10/05 09:29:20;;;;;;;11.57;3.70;;;16.70;99.90;;;;;;5135340;27;20042;-76
2023/10/05 09:31:50;;;;;;;9.75;3.38;;;16.70;99.90;;;;;;5134457;27;20086;-77
2023/10/05 09:34:36;;;;;;;12.20;3.60;;;16.70;99.90;;;;;;5135512;27;20108;-78
2023/10/05 09:37:13;;;;;;;14.20;3.40;;;16.80;99.90;;;;;;5116815;27;20057;-78
2023/10/05 09:39:44;;;;;;;13.15;3.80;;;16.90;99.90;;;;;;5135143;27;20409;-76
2023/10/05 09:42:25;;;;;;;16.05;3.72;;;16.90;99.90;;;;;;5134857;27;20055;-78
2023/10/05 09:45:08;;;;;;;13.45;3.65;;;16.90;99.90;;;;;;5134048;27;20485;-78
2023/10/05 09:47:35;;;;;;;12.13;3.65;;;16.90;99.90;;;;;;5134969;27;20103;-77
2023/10/05 09:50:12;;;;;;;12.52;3.00;;;16.90;99.90;;;;;;5136720;27;20050;-78
2023/10/05 09:52:46;;;;;;;11.45;3.28;;;17.00;99.90;;;;;;5137743;27;20089;-76
2023/10/05 09:55:18;;;;;;;9.25;2.83;;;17.10;99.90;;;;;;5138811;27;20080;-79
2023/10/05 09:57:51;;;;;;;9.52;2.65;;;17.30;99.90;;;;;;5138177;27;20034;-80
2023/10/05 10:03:03;;;;;;;8.00;2.72;;;18.00;99.90;;;;;;5137890;27;20046;-80
2023/10/05 10:06:12;;;;;;;9.00;2.78;;;18.40;99.90;;;;;;5138090;27;20050;-80
2023/10/05 10:08:51;;;;;;;8.77;2.45;;;19.30;99.90;;;;;;5075853;28;20083;-80
2023/10/05 10:11:18;;;;;;;13.95;3.05;;;20.00;99.90;;;;;;5075666;28;20044;-81
2023/10/05 10:14:09;;;;;;;6.97;2.05;;;20.40;99.90;;;;;;5111936;27;20042;-82
2023/10/05 10:16:41;;;;;;;11.48;2.63;;;20.50;99.90;;;;;;5138059;27;20404;-79
2023/10/05 10:19:43;;;;;;;12.63;2.80;;;20.50;99.90;;;;;;5137271;27;20627;-83
2023/10/05 10:22:00;;;;;;;7.85;2.80;;;20.60;99.90;;;;;;5154368;27;20055;-78
2023/10/05 10:24:29;;;;;;;12.73;2.97;;;20.40;99.90;;;;;;5137639;27;20118;-83
2023/10/05 10:27:08;;;;;;;9.73;2.88;;;20.40;99.90;;;;;;5137467;27;20054;-82
2023/10/05 10:29:56;;;;;;;10.20;3.20;;;20.80;99.90;;;;;;5150678;27;20070;-80
2023/10/05 10:32:24;;;;;;;8.05;2.70;;;22.20;99.90;;;;;;5130808;27;20435;-77
2023/10/05 10:35:07;;;;;;;12.43;2.97;;;23.30;99.90;;;;;;5135596;27;20053;-78
2023/10/05 10:37:39;;;;;;;12.63;2.83;;;23.90;99.90;;;;;;5116333;27;20063;-76
2023/10/05 10:45:41;;;;;;;11.20;2.63;;;24.50;99.90;;;;;;5116606;27;20379;-77
2023/10/05 10:48:09;;;;;;;11.15;2.90;;;24.20;99.90;;;;;;5115840;27;20478;-75
2023/10/05 10:50:39;;;;;;;10.27;2.55;;;23.40;99.90;;;;;;5116702;27;20046;-73
2023/10/05 10:53:18;;;;;;;10.07;2.80;;;22.60;99.90;;;;;;5116192;27;20051;-79
2023/10/05 10:55:48;;;;;;;11.13;2.55;;;21.90;99.90;;;;;;5115413;27;20039;-81
2023/10/05 10:58:21;;;;;;;8.25;2.25;;;21.60;99.90;;;;;;5133735;27;20475;-83
2023/10/05 11:00:59;;;;;;;9.27;2.50;;;21.30;99.90;;;;;;5134596;27;20051;-79
2023/10/05 11:03:26;;;;;;;10.48;2.85;;;21.30;99.90;;;;;;5136212;27;20130;-81
2023/10/05 11:05:57;;;;;;;11.70;2.53;;;21.50;99.90;;;;;;5136513;27;20051;-78
2023/10/05 11:08:23;;;;;;;8.60;2.60;;;21.60;99.90;;;;;;5136188;27;20086;-79
2023/10/05 11:10:54;;;;;;;9.30;3.15;;;21.40;99.90;;;;;;5136007;27;20046;-77
2023/10/05 11:13:21;;;;;;;10.98;3.13;;;21.50;99.90;;;;;;5136846;27;20050;-79
2023/10/05 11:16:00;;;;;;;12.95;3.28;;;21.10;99.90;;;;;;5135210;27;20080;-77
2023/10/05 11:18:39;;;;;;;10.18;3.00;;;20.70;99.90;;;;;;5132710;27;20070;-78
2023/10/05 11:21:06;;;;;;;9.55;2.40;;;20.10;99.90;;;;;;5115338;27;20435;-78
2023/10/05 11:23:43;;;;;;;7.20;2.15;;;19.50;99.90;;;;;;5122916;27;20050;-76
2023/10/05 11:26:18;;;;;;;7.07;1.70;;;19.00;99.90;;;;;;5132278;27;20042;-76
2023/10/05 11:28:49;;;;;;;8.18;2.03;;;18.60;99.90;;;;;;5135731;27;20078;-80
2023/10/05 11:31:21;;;;;;;5.93;1.90;;;18.50;99.90;;;;;;5135288;27;20054;-75
2023/10/05 11:33:49;;;;;;;5.82;2.03;;;18.30;99.90;;;;;;5135582;27;20042;-75
2023/10/05 11:36:17;;;;;;;7.47;1.92;;;18.20;99.90;;;;;;5129007;27;20080;-74
2023/10/05 11:38:48;;;;;;;9.25;2.25;;;18.10;99.90;;;;;;5135740;27;20049;-75
2023/10/05 11:41:23;;;;;;;7.85;2.30;;;18.00;99.90;;;;;;5135923;27;20389;-75
2023/10/05 11:43:53;;;;;;;8.67;2.60;;;18.00;99.90;;;;;;5135069;27;20043;-77
2023/10/05 11:46:24;;;;;;;10.35;2.30;;;17.90;99.90;;;;;;5135622;27;20056;-75
2023/10/05 11:48:56;;;;;;;9.98;2.60;;;17.90;99.90;;;;;;5117967;27;20045;-77
2023/10/05 11:51:42;;;;;;;10.77;3.00;;;18.20;99.90;;;;;;5113870;27;20509;-75
2023/10/05 11:54:19;;;;;;;10.60;3.05;;;18.30;99.90;;;;;;5139420;27;20100;-79
2023/10/05 11:56:46;;;;;;;13.32;2.78;;;18.40;99.90;;;;;;5115871;27;20235;-78
2023/10/05 11:59:12;;;;;;;12.75;2.97;;;18.50;99.90;;;;;;5114557;27;20039;-76
2023/10/05 12:01:40;;;;;;;13.43;3.03;;;18.60;99.90;;;;;;5132030;27;20382;-76
2023/10/05 12:04:09;;;;;;;13.25;2.60;;;18.80;99.90;;;;;;5133326;27;20412;-79
2023/10/05 12:06:37;;;;;;;8.85;2.70;;;19.10;99.90;;;;;;5153405;27;20458;-76
2023/10/05 12:09:07;;;;;;;11.02;2.70;;;19.60;99.90;;;;;;5135026;27;20066;-76
2023/10/05 12:11:38;;;;;;;10.18;2.70;;;20.10;99.90;;;;;;5134377;27;20039;-76
2023/10/05 12:14:04;;;;;;;9.68;2.72;;;20.30;99.90;;;;;;5134483;27;20091;-77
2023/10/05 12:16:32;;;;;;;11.40;2.50;;;20.30;99.90;;;;;;5119783;27;20075;-77
2023/10/05 12:19:13;;;;;;;8.95;2.50;;;20.40;99.90;;;;;;5113816;27;20099;-77
2023/10/05 12:21:45;;;;;;;8.77;2.42;;;20.60;99.90;;;;;;5113954;27;20057;-77
2023/10/05 12:24:11;;;;;;;8.18;2.22;;;21.40;99.90;;;;;;5114413;27;20059;-77
2023/10/05 12:26:39;;;;;;;10.43;2.38;;;21.60;99.90;;;;;;5123929;27;20087;-78
2023/10/05 12:29:12;;;;;;;9.32;2.65;;;21.30;99.90;;;;;;5134913;27;20125;-79
2023/10/05 12:31:42;;;;;;;11.40;2.22;;;20.90;99.90;;;;;;5135073;27;20487;-80
2023/10/05 12:34:14;;;;;;;10.70;2.38;;;20.70;99.90;;;;;;5133952;27;20050;-80
2023/10/05 12:36:51;;;;;;;9.88;2.20;;;21.10;99.90;;;;;;5135066;27;20087;-80
2023/10/05 12:39:17;;;;;;;11.48;2.47;;;21.50;99.90;;;;;;5135126;27;20099;-80
2023/10/05 12:41:47;;;;;;;14.15;2.58;;;21.60;99.90;;;;;;5134049;27;20062;-79
2023/10/05 12:44:15;;;;;;;6.82;2.50;;;22.00;99.90;;;;;;5134819;27;20078;-76
2023/10/05 12:46:46;;;;;;;8.57;2.22;;;22.60;99.90;;;;;;5134714;27;20045;-78
2023/10/05 12:49:16;;;;;;;8.63;2.20;;;22.30;99.90;;;;;;5134750;27;20035;-75
2023/10/05 12:51:44;;;;;;;8.93;2.28;;;21.90;99.90;;;;;;5135244;27;20078;-76
2023/10/05 12:54:19;;;;;;;10.45;2.33;;;21.90;99.90;;;;;;5134459;27;20056;-77
2023/10/05 12:56:45;;;;;;;7.32;2.10;;;21.80;99.90;;;;;;5134620;27;20035;-74
2023/10/05 12:59:11;;;;;;;11.25;2.58;;;21.60;99.90;;;;;;5133922;27;20042;-79
2023/10/05 13:01:41;;;;;;;9.15;2.25;;;21.50;99.90;;;;;;5134119;27;20066;-78
2023/10/05 13:04:11;;;;;;;11.02;2.45;;;21.20;99.90;;;;;;5134024;27;20058;-77
2023/10/05 13:06:40;;;;;;;8.57;2.15;;;21.00;99.90;;;;;;5134074;27;20066;-77
2023/10/05 13:09:11;;;;;;;8.00;2.50;;;20.80;99.90;;;;;;5144259;27;20378;-78
2023/10/05 13:11:45;;;;;;;9.65;2.60;;;20.60;99.90;;;;;;5146793;27;20047;-76
2023/10/05 13:14:14;;;;;;;9.40;2.40;;;20.50;99.90;;;;;;5149572;27;20023;-76
2023/10/05 13:16:40;;;;;;;8.88;2.28;;;20.20;99.90;;;;;;5124461;27;20485;-78
2023/10/05 13:19:09;;;;;;;9.02;2.17;;;20.20;99.90;;;;;;5127045;27;20043;-78
2023/10/05 13:21:44;;;;;;;7.97;2.45;;;20.10;99.90;;;;;;5119795;27;20113;-78
2023/10/05 13:24:15;;;;;;;6.13;1.92;;;20.00;99.90;;;;;;5134616;27;20038;-78
2023/10/05 13:26:44;;;;;;;7.43;2.30;;;20.00;99.90;;;;;;5138006;27;20505;-76